Hlavní strana
METAR-TAF:

METAR-TAF

Letiště :

Örebro, Švédsko

zeměpisná šířka: 59-14N, zeměpisná délka: 015-03E, výška: 57 m

Aktuální stav počasí

Zpráva byla vytvořena před 36 minutami, v 05:20 UTC
Západojihozápadní vítr 14 kt
Teplota 4°C
Vlhkost vzduchu 93%
Tlak 1028 hPa
Viditelnost: 3400 m

METAR: ESOE 240520Z AUTO 25014KT 3400 OVC003/// 04/03 Q1028

Čas: 06:56 (05:56 UTC)

Předpověď počasí

Zpráva byla vytvořena před 15 hodinami a 26 minutami, v 14:30 UTC
Předpověď platná od 23 v 15 UTC do 23 v 17 UTC
Západojihozápadní vítr 10 kt
Viditelnost: 9000 m
Zataženo ve výšce 400 ft
Pravděpodobnost 40%
od 23 v 15 UTC do 23 v 17 UTC
Zataženo ve výšce 600 ft

TAF: ESOE 231430Z 2315/2317 25010KT 9000 OVC004 PROB40 2315/2317 OVC006

Stav a předpovědi počasí z více než 4 000 letišť (zprávy METAR a TAF).

Červené a žluté tečky na mapě představují dostupné meteorologické stanice.

Když kurzor umístíte na tečku, zobrazí se název stanice.

Pak kliknutím zobrazíte stav a předpověď počasí.

Chcete-li změnit mapu, kliknutím na zelené tlačítko se znaménkem +mapu přiblížíte, kliknutím na zelené tlačítko se znaménkem – mapu oddálíte a kliknutím na zelené šipky přejdete na sousední mapy.


METAR-TAF: